sensor_id;sensor_type;location;lat;lon;timestamp;P1;durP1;ratioP1;P2;durP2;ratioP2
52734;SDS011;38631;47.572;10.704;2022-07-23T00:00:23;8.00;;;6.70;;
52734;SDS011;38631;47.572;10.704;2022-07-23T00:02:48;9.07;;;6.87;;
52734;SDS011;38631;47.572;10.704;2022-07-23T00:05:13;7.37;;;6.63;;
52734;SDS011;38631;47.572;10.704;2022-07-23T00:07:39;9.38;;;6.47;;
52734;SDS011;38631;47.572;10.704;2022-07-23T00:10:05;7.65;;;6.63;;
52734;SDS011;38631;47.572;10.704;2022-07-23T00:12:30;7.13;;;5.85;;
52734;SDS011;38631;47.572;10.704;2022-07-23T00:14:55;8.03;;;6.40;;
52734;SDS011;38631;47.572;10.704;2022-07-23T00:17:20;7.80;;;7.00;;
52734;SDS011;38631;47.572;10.704;2022-07-23T00:19:45;7.40;;;6.70;;
52734;SDS011;38631;47.572;10.704;2022-07-23T00:22:11;7.80;;;6.87;;
52734;SDS011;38631;47.572;10.704;2022-07-23T00:24:36;7.07;;;6.43;;
52734;SDS011;38631;47.572;10.704;2022-07-23T00:27:01;7.77;;;6.97;;
52734;SDS011;38631;47.572;10.704;2022-07-23T00:29:26;8.10;;;7.30;;
52734;SDS011;38631;47.572;10.704;2022-07-23T00:31:51;9.73;;;7.70;;
52734;SDS011;38631;47.572;10.704;2022-07-23T00:34:16;9.13;;;7.80;;
52734;SDS011;38631;47.572;10.704;2022-07-23T00:36:41;13.07;;;8.10;;
52734;SDS011;38631;47.572;10.704;2022-07-23T00:39:07;11.10;;;7.40;;
52734;SDS011;38631;47.572;10.704;2022-07-23T00:41:32;10.98;;;6.72;;
52734;SDS011;38631;47.572;10.704;2022-07-23T00:44:13;9.33;;;5.67;;
52734;SDS011;38631;47.572;10.704;2022-07-23T00:46:44;9.00;;;6.40;;
52734;SDS011;38631;47.572;10.704;2022-07-23T00:49:09;8.27;;;5.15;;
52734;SDS011;38631;47.572;10.704;2022-07-23T00:51:35;6.22;;;5.07;;
52734;SDS011;38631;47.572;10.704;2022-07-23T00:54:00;6.00;;;4.60;;
52734;SDS011;38631;47.572;10.704;2022-07-23T00:56:25;9.70;;;5.60;;
52734;SDS011;38631;47.572;10.704;2022-07-23T00:58:50;6.85;;;4.75;;
52734;SDS011;38631;47.572;10.704;2022-07-23T01:01:16;6.40;;;4.97;;
52734;SDS011;38631;47.572;10.704;2022-07-23T01:03:41;5.50;;;4.77;;
52734;SDS011;38631;47.572;10.704;2022-07-23T01:06:06;7.10;;;5.37;;
52734;SDS011;38631;47.572;10.704;2022-07-23T01:08:31;9.47;;;5.57;;
52734;SDS011;38631;47.572;10.704;2022-07-23T01:10:56;6.38;;;4.85;;
52734;SDS011;38631;47.572;10.704;2022-07-23T01:13:22;6.60;;;4.60;;
52734;SDS011;38631;47.572;10.704;2022-07-23T01:15:47;6.50;;;5.15;;
52734;SDS011;38631;47.572;10.704;2022-07-23T01:18:12;6.57;;;4.55;;
52734;SDS011;38631;47.572;10.704;2022-07-23T01:20:37;5.47;;;4.80;;
52734;SDS011;38631;47.572;10.704;2022-07-23T01:23:02;12.77;;;5.77;;
52734;SDS011;38631;47.572;10.704;2022-07-23T01:25:28;5.60;;;4.70;;
52734;SDS011;38631;47.572;10.704;2022-07-23T01:27:53;5.03;;;4.47;;
52734;SDS011;38631;47.572;10.704;2022-07-23T01:30:18;8.23;;;4.90;;
52734;SDS011;38631;47.572;10.704;2022-07-23T01:32:44;6.90;;;4.95;;
52734;SDS011;38631;47.572;10.704;2022-07-23T01:35:09;6.25;;;4.97;;
52734;SDS011;38631;47.572;10.704;2022-07-23T01:37:35;6.03;;;4.87;;
52734;SDS011;38631;47.572;10.704;2022-07-23T01:40:00;6.32;;;4.65;;
52734;SDS011;38631;47.572;10.704;2022-07-23T01:42:25;7.33;;;5.47;;
52734;SDS011;38631;47.572;10.704;2022-07-23T01:44:51;8.07;;;5.60;;
52734;SDS011;38631;47.572;10.704;2022-07-23T01:47:16;6.10;;;5.50;;
52734;SDS011;38631;47.572;10.704;2022-07-23T01:49:41;8.53;;;6.30;;
52734;SDS011;38631;47.572;10.704;2022-07-23T01:52:06;6.67;;;5.97;;
52734;SDS011;38631;47.572;10.704;2022-07-23T01:54:35;9.00;;;5.57;;
52734;SDS011;38631;47.572;10.704;2022-07-23T01:57:00;11.07;;;5.90;;
52734;SDS011;38631;47.572;10.704;2022-07-23T01:59:26;7.53;;;5.30;;
52734;SDS011;38631;47.572;10.704;2022-07-23T02:01:51;9.45;;;6.10;;
52734;SDS011;38631;47.572;10.704;2022-07-23T02:04:17;6.85;;;5.40;;
52734;SDS011;38631;47.572;10.704;2022-07-23T02:06:42;8.15;;;5.90;;
52734;SDS011;38631;47.572;10.704;2022-07-23T02:09:07;10.20;;;5.83;;
52734;SDS011;38631;47.572;10.704;2022-07-23T02:11:33;7.23;;;6.17;;
52734;SDS011;38631;47.572;10.704;2022-07-23T02:13:58;7.35;;;6.22;;
52734;SDS011;38631;47.572;10.704;2022-07-23T02:16:23;7.38;;;5.82;;
52734;SDS011;38631;47.572;10.704;2022-07-23T02:18:48;7.35;;;5.75;;
52734;SDS011;38631;47.572;10.704;2022-07-23T02:21:13;6.43;;;5.68;;
52734;SDS011;38631;47.572;10.704;2022-07-23T02:23:39;8.30;;;6.00;;
52734;SDS011;38631;47.572;10.704;2022-07-23T02:26:04;9.63;;;6.60;;
52734;SDS011;38631;47.572;10.704;2022-07-23T02:28:29;10.60;;;6.60;;
52734;SDS011;38631;47.572;10.704;2022-07-23T02:30:54;9.87;;;6.97;;
52734;SDS011;38631;47.572;10.704;2022-07-23T02:33:19;10.27;;;6.07;;
52734;SDS011;38631;47.572;10.704;2022-07-23T02:35:44;10.88;;;6.70;;
52734;SDS011;38631;47.572;10.704;2022-07-23T02:38:10;8.07;;;6.57;;
52734;SDS011;38631;47.572;10.704;2022-07-23T02:40:35;8.80;;;6.30;;
52734;SDS011;38631;47.572;10.704;2022-07-23T02:43:00;7.67;;;6.87;;
52734;SDS011;38631;47.572;10.704;2022-07-23T02:45:25;8.07;;;6.43;;
52734;SDS011;38631;47.572;10.704;2022-07-23T02:47:50;8.90;;;7.23;;
52734;SDS011;38631;47.572;10.704;2022-07-23T02:50:15;8.50;;;7.57;;
52734;SDS011;38631;47.572;10.704;2022-07-23T02:52:41;9.48;;;8.00;;
52734;SDS011;38631;47.572;10.704;2022-07-23T02:55:06;9.37;;;7.57;;
52734;SDS011;38631;47.572;10.704;2022-07-23T02:57:31;7.25;;;6.55;;
52734;SDS011;38631;47.572;10.704;2022-07-23T02:59:56;9.23;;;8.03;;
52734;SDS011;38631;47.572;10.704;2022-07-23T03:02:22;9.13;;;8.23;;
52734;SDS011;38631;47.572;10.704;2022-07-23T03:04:47;9.10;;;7.73;;
52734;SDS011;38631;47.572;10.704;2022-07-23T03:07:12;8.43;;;7.53;;
52734;SDS011;38631;47.572;10.704;2022-07-23T03:09:37;8.90;;;8.00;;
52734;SDS011;38631;47.572;10.704;2022-07-23T03:12:02;9.95;;;8.93;;
52734;SDS011;38631;47.572;10.704;2022-07-23T03:14:28;9.00;;;7.47;;
52734;SDS011;38631;47.572;10.704;2022-07-23T03:16:53;7.83;;;7.03;;
52734;SDS011;38631;47.572;10.704;2022-07-23T03:19:19;8.93;;;6.97;;
52734;SDS011;38631;47.572;10.704;2022-07-23T03:21:44;8.00;;;6.43;;
52734;SDS011;38631;47.572;10.704;2022-07-23T03:24:09;8.00;;;7.00;;
52734;SDS011;38631;47.572;10.704;2022-07-23T03:26:35;8.15;;;7.30;;
52734;SDS011;38631;47.572;10.704;2022-07-23T03:29:00;12.05;;;6.88;;
52734;SDS011;38631;47.572;10.704;2022-07-23T03:31:26;9.80;;;6.18;;
52734;SDS011;38631;47.572;10.704;2022-07-23T03:33:51;7.60;;;6.67;;
52734;SDS011;38631;47.572;10.704;2022-07-23T03:36:16;7.50;;;6.65;;
52734;SDS011;38631;47.572;10.704;2022-07-23T03:38:41;9.40;;;6.80;;
52734;SDS011;38631;47.572;10.704;2022-07-23T03:41:06;8.67;;;6.90;;
52734;SDS011;38631;47.572;10.704;2022-07-23T03:43:32;8.57;;;6.33;;
52734;SDS011;38631;47.572;10.704;2022-07-23T03:45:58;7.47;;;6.78;;
52734;SDS011;38631;47.572;10.704;2022-07-23T03:48:23;7.33;;;6.30;;
52734;SDS011;38631;47.572;10.704;2022-07-23T03:50:48;8.43;;;7.30;;
52734;SDS011;38631;47.572;10.704;2022-07-23T03:53:13;8.70;;;7.70;;
52734;SDS011;38631;47.572;10.704;2022-07-23T03:55:40;17.00;;;7.07;;
52734;SDS011;38631;47.572;10.704;2022-07-23T03:58:05;8.93;;;6.93;;
52734;SDS011;38631;47.572;10.704;2022-07-23T04:00:31;8.30;;;6.53;;
52734;SDS011;38631;47.572;10.704;2022-07-23T04:02:56;10.93;;;6.40;;
52734;SDS011;38631;47.572;10.704;2022-07-23T04:05:22;10.50;;;6.37;;
52734;SDS011;38631;47.572;10.704;2022-07-23T04:07:47;6.70;;;6.10;;
52734;SDS011;38631;47.572;10.704;2022-07-23T04:10:12;8.05;;;5.90;;
52734;SDS011;38631;47.572;10.704;2022-07-23T04:12:37;6.23;;;5.63;;
52734;SDS011;38631;47.572;10.704;2022-07-23T04:15:03;7.90;;;5.90;;
52734;SDS011;38631;47.572;10.704;2022-07-23T04:17:28;8.82;;;5.85;;
52734;SDS011;38631;47.572;10.704;2022-07-23T04:19:53;9.13;;;5.40;;
52734;SDS011;38631;47.572;10.704;2022-07-23T04:22:19;6.97;;;5.23;;
52734;SDS011;38631;47.572;10.704;2022-07-23T04:24:46;5.67;;;5.07;;
52734;SDS011;38631;47.572;10.704;2022-07-23T04:27:11;5.60;;;4.93;;
52734;SDS011;38631;47.572;10.704;2022-07-23T04:29:36;5.47;;;4.80;;
52734;SDS011;38631;47.572;10.704;2022-07-23T04:32:01;6.73;;;5.60;;
52734;SDS011;38631;47.572;10.704;2022-07-23T04:34:27;5.83;;;4.60;;
52734;SDS011;38631;47.572;10.704;2022-07-23T04:36:52;5.50;;;4.63;;
52734;SDS011;38631;47.572;10.704;2022-07-23T04:39:18;6.30;;;4.82;;
52734;SDS011;38631;47.572;10.704;2022-07-23T04:41:43;6.40;;;4.10;;
52734;SDS011;38631;47.572;10.704;2022-07-23T04:44:08;6.60;;;4.57;;
52734;SDS011;38631;47.572;10.704;2022-07-23T04:46:33;4.23;;;3.83;;
52734;SDS011;38631;47.572;10.704;2022-07-23T04:48:58;4.30;;;3.90;;
52734;SDS011;38631;47.572;10.704;2022-07-23T04:51:24;4.33;;;3.93;;
52734;SDS011;38631;47.572;10.704;2022-07-23T04:53:49;5.35;;;3.60;;
52734;SDS011;38631;47.572;10.704;2022-07-23T04:56:14;5.75;;;3.95;;
52734;SDS011;38631;47.572;10.704;2022-07-23T04:58:40;5.13;;;3.40;;
52734;SDS011;38631;47.572;10.704;2022-07-23T05:01:05;3.20;;;2.90;;
52734;SDS011;38631;47.572;10.704;2022-07-23T05:03:30;4.22;;;3.33;;
52734;SDS011;38631;47.572;10.704;2022-07-23T05:05:55;4.43;;;3.60;;
52734;SDS011;38631;47.572;10.704;2022-07-23T05:08:20;3.13;;;2.83;;
52734;SDS011;38631;47.572;10.704;2022-07-23T05:10:46;3.75;;;3.08;;
52734;SDS011;38631;47.572;10.704;2022-07-23T05:13:11;3.73;;;3.20;;
52734;SDS011;38631;47.572;10.704;2022-07-23T05:15:36;4.85;;;3.60;;
52734;SDS011;38631;47.572;10.704;2022-07-23T05:18:01;4.70;;;3.73;;
52734;SDS011;38631;47.572;10.704;2022-07-23T05:20:26;6.20;;;4.50;;
52734;SDS011;38631;47.572;10.704;2022-07-23T05:22:51;6.25;;;5.20;;
52734;SDS011;38631;47.572;10.704;2022-07-23T05:25:17;6.03;;;4.68;;
52734;SDS011;38631;47.572;10.704;2022-07-23T05:27:42;5.33;;;4.70;;
52734;SDS011;38631;47.572;10.704;2022-07-23T05:30:07;5.47;;;4.53;;
52734;SDS011;38631;47.572;10.704;2022-07-23T05:32:33;5.20;;;4.70;;
52734;SDS011;38631;47.572;10.704;2022-07-23T05:34:58;5.53;;;4.90;;
52734;SDS011;38631;47.572;10.704;2022-07-23T05:37:23;8.20;;;5.90;;
52734;SDS011;38631;47.572;10.704;2022-07-23T05:39:48;6.50;;;5.80;;
52734;SDS011;38631;47.572;10.704;2022-07-23T05:42:14;6.83;;;4.87;;
52734;SDS011;38631;47.572;10.704;2022-07-23T05:44:39;8.00;;;5.33;;
52734;SDS011;38631;47.572;10.704;2022-07-23T05:47:04;7.50;;;5.37;;
52734;SDS011;38631;47.572;10.704;2022-07-23T05:49:29;5.57;;;4.90;;
52734;SDS011;38631;47.572;10.704;2022-07-23T05:51:54;6.73;;;5.63;;
52734;SDS011;38631;47.572;10.704;2022-07-23T05:54:19;5.93;;;5.03;;
52734;SDS011;38631;47.572;10.704;2022-07-23T05:56:44;5.97;;;5.37;;
52734;SDS011;38631;47.572;10.704;2022-07-23T05:59:10;5.97;;;5.47;;
52734;SDS011;38631;47.572;10.704;2022-07-23T06:01:37;6.43;;;5.70;;
52734;SDS011;38631;47.572;10.704;2022-07-23T06:04:02;5.90;;;4.78;;
52734;SDS011;38631;47.572;10.704;2022-07-23T06:06:27;6.33;;;5.23;;
52734;SDS011;38631;47.572;10.704;2022-07-23T06:08:52;5.27;;;4.77;;
52734;SDS011;38631;47.572;10.704;2022-07-23T06:11:17;6.37;;;4.80;;
52734;SDS011;38631;47.572;10.704;2022-07-23T06:13:42;8.10;;;5.27;;
52734;SDS011;38631;47.572;10.704;2022-07-23T06:16:08;5.87;;;5.13;;
52734;SDS011;38631;47.572;10.704;2022-07-23T06:18:33;6.30;;;5.07;;
52734;SDS011;38631;47.572;10.704;2022-07-23T06:20:58;5.70;;;5.20;;
52734;SDS011;38631;47.572;10.704;2022-07-23T06:23:23;6.10;;;5.13;;
52734;SDS011;38631;47.572;10.704;2022-07-23T06:25:48;5.63;;;5.03;;
52734;SDS011;38631;47.572;10.704;2022-07-23T06:28:13;5.93;;;5.17;;
52734;SDS011;38631;47.572;10.704;2022-07-23T06:30:39;6.40;;;5.40;;
52734;SDS011;38631;47.572;10.704;2022-07-23T06:33:04;6.93;;;5.47;;
52734;SDS011;38631;47.572;10.704;2022-07-23T06:35:29;6.57;;;5.80;;
52734;SDS011;38631;47.572;10.704;2022-07-23T06:37:54;4.63;;;3.93;;
52734;SDS011;38631;47.572;10.704;2022-07-23T06:40:19;4.53;;;4.13;;
52734;SDS011;38631;47.572;10.704;2022-07-23T06:42:45;5.30;;;4.80;;
52734;SDS011;38631;47.572;10.704;2022-07-23T06:45:10;6.00;;;4.70;;
52734;SDS011;38631;47.572;10.704;2022-07-23T06:47:35;6.43;;;5.10;;
52734;SDS011;38631;47.572;10.704;2022-07-23T06:50:00;7.03;;;5.63;;
52734;SDS011;38631;47.572;10.704;2022-07-23T06:52:25;6.65;;;4.22;;
52734;SDS011;38631;47.572;10.704;2022-07-23T06:54:51;5.90;;;5.13;;
52734;SDS011;38631;47.572;10.704;2022-07-23T06:57:17;4.75;;;4.35;;
52734;SDS011;38631;47.572;10.704;2022-07-23T06:59:42;4.80;;;4.20;;
52734;SDS011;38631;47.572;10.704;2022-07-23T07:02:07;6.47;;;5.77;;
52734;SDS011;38631;47.572;10.704;2022-07-23T07:04:33;5.53;;;4.97;;
52734;SDS011;38631;47.572;10.704;2022-07-23T07:06:58;6.88;;;5.47;;
52734;SDS011;38631;47.572;10.704;2022-07-23T07:09:24;6.47;;;5.87;;
52734;SDS011;38631;47.572;10.704;2022-07-23T07:11:49;6.70;;;6.10;;
52734;SDS011;38631;47.572;10.704;2022-07-23T07:14:14;8.23;;;6.33;;
52734;SDS011;38631;47.572;10.704;2022-07-23T07:16:39;8.37;;;6.50;;
52734;SDS011;38631;47.572;10.704;2022-07-23T07:19:04;8.13;;;6.30;;
52734;SDS011;38631;47.572;10.704;2022-07-23T07:21:29;8.60;;;6.23;;
52734;SDS011;38631;47.572;10.704;2022-07-23T07:23:55;6.43;;;5.83;;
52734;SDS011;38631;47.572;10.704;2022-07-23T07:26:20;6.40;;;5.07;;
52734;SDS011;38631;47.572;10.704;2022-07-23T07:28:45;6.40;;;5.13;;
52734;SDS011;38631;47.572;10.704;2022-07-23T07:31:10;5.45;;;4.88;;
52734;SDS011;38631;47.572;10.704;2022-07-23T07:33:35;6.07;;;4.93;;
52734;SDS011;38631;47.572;10.704;2022-07-23T07:36:00;6.10;;;5.30;;
52734;SDS011;38631;47.572;10.704;2022-07-23T07:38:26;6.10;;;5.47;;
52734;SDS011;38631;47.572;10.704;2022-07-23T07:40:51;5.97;;;5.32;;
52734;SDS011;38631;47.572;10.704;2022-07-23T07:43:16;6.30;;;5.63;;
52734;SDS011;38631;47.572;10.704;2022-07-23T07:45:41;6.00;;;5.10;;
52734;SDS011;38631;47.572;10.704;2022-07-23T07:48:06;7.77;;;5.60;;
52734;SDS011;38631;47.572;10.704;2022-07-23T07:50:32;10.77;;;5.72;;
52734;SDS011;38631;47.572;10.704;2022-07-23T07:52:57;6.28;;;5.15;;
52734;SDS011;38631;47.572;10.704;2022-07-23T07:55:22;4.97;;;4.40;;
52734;SDS011;38631;47.572;10.704;2022-07-23T07:57:47;4.83;;;4.33;;
52734;SDS011;38631;47.572;10.704;2022-07-23T08:00:12;5.60;;;4.70;;
52734;SDS011;38631;47.572;10.704;2022-07-23T08:02:44;6.70;;;4.83;;
52734;SDS011;38631;47.572;10.704;2022-07-23T08:05:10;5.63;;;4.65;;
52734;SDS011;38631;47.572;10.704;2022-07-23T08:07:35;5.53;;;4.50;;
52734;SDS011;38631;47.572;10.704;2022-07-23T08:10:02;6.82;;;4.72;;
52734;SDS011;38631;47.572;10.704;2022-07-23T08:12:27;5.05;;;4.55;;
52734;SDS011;38631;47.572;10.704;2022-07-23T08:14:52;6.03;;;4.73;;
52734;SDS011;38631;47.572;10.704;2022-07-23T08:17:17;6.03;;;4.20;;
52734;SDS011;38631;47.572;10.704;2022-07-23T08:19:43;4.33;;;3.50;;
52734;SDS011;38631;47.572;10.704;2022-07-23T08:22:08;6.13;;;3.97;;
52734;SDS011;38631;47.572;10.704;2022-07-23T08:24:33;3.60;;;3.30;;
52734;SDS011;38631;47.572;10.704;2022-07-23T08:26:58;5.22;;;3.92;;
52734;SDS011;38631;47.572;10.704;2022-07-23T08:29:23;4.37;;;3.60;;
52734;SDS011;38631;47.572;10.704;2022-07-23T08:31:48;4.37;;;3.10;;
52734;SDS011;38631;47.572;10.704;2022-07-23T08:34:13;3.85;;;3.45;;
52734;SDS011;38631;47.572;10.704;2022-07-23T08:36:39;4.80;;;4.07;;
52734;SDS011;38631;47.572;10.704;2022-07-23T08:39:04;3.78;;;3.28;;
52734;SDS011;38631;47.572;10.704;2022-07-23T08:41:29;4.20;;;3.60;;
52734;SDS011;38631;47.572;10.704;2022-07-23T08:43:54;4.30;;;3.90;;
52734;SDS011;38631;47.572;10.704;2022-07-23T08:46:19;4.70;;;3.63;;
52734;SDS011;38631;47.572;10.704;2022-07-23T08:48:47;4.03;;;3.60;;
52734;SDS011;38631;47.572;10.704;2022-07-23T08:51:12;4.45;;;3.67;;
52734;SDS011;38631;47.572;10.704;2022-07-23T08:53:38;3.83;;;3.40;;
52734;SDS011;38631;47.572;10.704;2022-07-23T08:56:04;4.13;;;3.72;;
52734;SDS011;38631;47.572;10.704;2022-07-23T08:58:30;4.20;;;3.50;;
52734;SDS011;38631;47.572;10.704;2022-07-23T09:00:56;4.75;;;3.83;;
52734;SDS011;38631;47.572;10.704;2022-07-23T09:03:31;4.40;;;4.00;;
52734;SDS011;38631;47.572;10.704;2022-07-23T09:05:57;5.15;;;4.05;;
52734;SDS011;38631;47.572;10.704;2022-07-23T09:08:24;3.90;;;3.42;;
52734;SDS011;38631;47.572;10.704;2022-07-23T09:10:54;4.78;;;3.65;;
52734;SDS011;38631;47.572;10.704;2022-07-23T09:13:22;4.97;;;3.90;;
52734;SDS011;38631;47.572;10.704;2022-07-23T09:15:49;5.38;;;4.43;;
52734;SDS011;38631;47.572;10.704;2022-07-23T09:18:15;7.22;;;5.18;;
52734;SDS011;38631;47.572;10.704;2022-07-23T09:20:40;5.10;;;3.58;;
52734;SDS011;38631;47.572;10.704;2022-07-23T09:23:05;3.75;;;3.42;;
52734;SDS011;38631;47.572;10.704;2022-07-23T09:25:31;3.65;;;3.22;;
52734;SDS011;38631;47.572;10.704;2022-07-23T09:27:57;5.97;;;3.97;;
52734;SDS011;38631;47.572;10.704;2022-07-23T09:30:25;6.40;;;3.72;;
52734;SDS011;38631;47.572;10.704;2022-07-23T09:35:48;5.13;;;4.63;;
52734;SDS011;38631;47.572;10.704;2022-07-23T09:38:14;4.35;;;3.95;;
52734;SDS011;38631;47.572;10.704;2022-07-23T09:40:40;4.63;;;4.10;;
52734;SDS011;38631;47.572;10.704;2022-07-23T09:43:05;6.45;;;4.45;;
52734;SDS011;38631;47.572;10.704;2022-07-23T09:45:30;4.80;;;4.30;;
52734;SDS011;38631;47.572;10.704;2022-07-23T09:48:12;4.22;;;3.83;;
52734;SDS011;38631;47.572;10.704;2022-07-23T09:50:37;4.63;;;3.85;;
52734;SDS011;38631;47.572;10.704;2022-07-23T09:53:02;4.30;;;3.90;;
52734;SDS011;38631;47.572;10.704;2022-07-23T09:55:34;5.63;;;3.58;;
52734;SDS011;38631;47.572;10.704;2022-07-23T09:58:06;5.28;;;3.85;;
52734;SDS011;38631;47.572;10.704;2022-07-23T10:00:38;4.38;;;3.97;;
52734;SDS011;38631;47.572;10.704;2022-07-23T10:03:03;7.63;;;3.90;;
52734;SDS011;38631;47.572;10.704;2022-07-23T10:05:29;4.00;;;3.60;;
52734;SDS011;38631;47.572;10.704;2022-07-23T10:07:55;5.40;;;4.22;;
52734;SDS011;38631;47.572;10.704;2022-07-23T10:10:21;4.80;;;4.40;;
52734;SDS011;38631;47.572;10.704;2022-07-23T10:12:47;5.13;;;3.88;;
52734;SDS011;38631;47.572;10.704;2022-07-23T10:15:15;6.15;;;3.85;;
52734;SDS011;38631;47.572;10.704;2022-07-23T10:17:41;5.10;;;3.78;;
52734;SDS011;38631;47.572;10.704;2022-07-23T10:20:06;4.97;;;3.90;;
52734;SDS011;38631;47.572;10.704;2022-07-23T10:22:38;4.85;;;4.35;;
52734;SDS011;38631;47.572;10.704;2022-07-23T10:25:10;4.90;;;4.40;;
52734;SDS011;38631;47.572;10.704;2022-07-23T10:30:14;5.15;;;4.65;;
52734;SDS011;38631;47.572;10.704;2022-07-23T10:32:44;5.28;;;4.65;;
52734;SDS011;38631;47.572;10.704;2022-07-23T10:37:39;4.88;;;3.88;;
52734;SDS011;38631;47.572;10.704;2022-07-23T10:40:12;5.72;;;4.18;;
52734;SDS011;38631;47.572;10.704;2022-07-23T10:42:38;6.00;;;3.88;;
52734;SDS011;38631;47.572;10.704;2022-07-23T10:47:48;5.65;;;4.35;;
52734;SDS011;38631;47.572;10.704;2022-07-23T10:50:26;6.20;;;4.68;;
52734;SDS011;38631;47.572;10.704;2022-07-23T10:57:58;8.13;;;4.43;;
52734;SDS011;38631;47.572;10.704;2022-07-23T11:00:24;6.75;;;5.18;;
52734;SDS011;38631;47.572;10.704;2022-07-23T11:02:51;7.18;;;5.50;;
52734;SDS011;38631;47.572;10.704;2022-07-23T11:05:17;7.35;;;5.07;;
52734;SDS011;38631;47.572;10.704;2022-07-23T11:19:14;6.68;;;5.38;;
52734;SDS011;38631;47.572;10.704;2022-07-23T11:23:58;7.97;;;7.00;;
52734;SDS011;38631;47.572;10.704;2022-07-23T11:31:54;7.65;;;6.88;;
52734;SDS011;38631;47.572;10.704;2022-07-23T11:37:03;8.63;;;7.47;;
52734;SDS011;38631;47.572;10.704;2022-07-23T11:39:29;8.60;;;7.30;;
52734;SDS011;38631;47.572;10.704;2022-07-23T11:41:55;8.75;;;6.80;;
52734;SDS011;38631;47.572;10.704;2022-07-23T11:44:54;8.52;;;7.35;;
52734;SDS011;38631;47.572;10.704;2022-07-23T11:47:13;7.30;;;5.60;;
52734;SDS011;38631;47.572;10.704;2022-07-23T11:49:38;5.88;;;4.88;;
52734;SDS011;38631;47.572;10.704;2022-07-23T11:54:29;7.10;;;5.60;;
52734;SDS011;38631;47.572;10.704;2022-07-23T11:56:58;6.35;;;4.93;;
52734;SDS011;38631;47.572;10.704;2022-07-23T11:59:25;6.10;;;5.22;;
52734;SDS011;38631;47.572;10.704;2022-07-23T12:02:01;5.07;;;4.57;;
52734;SDS011;38631;47.572;10.704;2022-07-23T12:04:43;6.90;;;4.97;;
52734;SDS011;38631;47.572;10.704;2022-07-23T12:07:24;5.60;;;4.70;;
52734;SDS011;38631;47.572;10.704;2022-07-23T12:09:49;7.22;;;5.60;;
52734;SDS011;38631;47.572;10.704;2022-07-23T12:12:15;6.93;;;5.10;;
52734;SDS011;38631;47.572;10.704;2022-07-23T12:17:18;5.93;;;4.95;;
52734;SDS011;38631;47.572;10.704;2022-07-23T12:19:43;5.63;;;4.30;;
52734;SDS011;38631;47.572;10.704;2022-07-23T12:22:09;5.30;;;4.30;;
52734;SDS011;38631;47.572;10.704;2022-07-23T12:27:19;4.40;;;3.95;;
52734;SDS011;38631;47.572;10.704;2022-07-23T12:29:45;6.22;;;4.15;;
52734;SDS011;38631;47.572;10.704;2022-07-23T12:32:25;8.00;;;5.00;;
52734;SDS011;38631;47.572;10.704;2022-07-23T12:35:00;5.70;;;4.70;;
52734;SDS011;38631;47.572;10.704;2022-07-23T12:37:33;5.85;;;5.28;;
52734;SDS011;38631;47.572;10.704;2022-07-23T12:40:17;6.25;;;5.10;;
52734;SDS011;38631;47.572;10.704;2022-07-23T12:42:43;6.68;;;5.40;;
52734;SDS011;38631;47.572;10.704;2022-07-23T12:45:10;5.77;;;5.27;;
52734;SDS011;38631;47.572;10.704;2022-07-23T12:53:17;5.60;;;4.85;;
52734;SDS011;38631;47.572;10.704;2022-07-23T12:55:43;5.43;;;4.88;;
52734;SDS011;38631;47.572;10.704;2022-07-23T12:58:10;5.80;;;4.88;;
52734;SDS011;38631;47.572;10.704;2022-07-23T13:03:38;6.72;;;5.65;;
52734;SDS011;38631;47.572;10.704;2022-07-23T13:08:29;6.23;;;5.63;;
52734;SDS011;38631;47.572;10.704;2022-07-23T13:10:55;6.68;;;5.13;;
52734;SDS011;38631;47.572;10.704;2022-07-23T13:13:20;5.45;;;4.72;;
52734;SDS011;38631;47.572;10.704;2022-07-23T13:15:46;5.95;;;4.82;;
52734;SDS011;38631;47.572;10.704;2022-07-23T13:18:11;7.32;;;4.88;;
52734;SDS011;38631;47.572;10.704;2022-07-23T13:20:43;6.53;;;4.93;;
52734;SDS011;38631;47.572;10.704;2022-07-23T13:23:09;5.95;;;4.82;;
52734;SDS011;38631;47.572;10.704;2022-07-23T13:25:34;7.07;;;4.83;;
52734;SDS011;38631;47.572;10.704;2022-07-23T13:28:00;5.40;;;4.78;;
52734;SDS011;38631;47.572;10.704;2022-07-23T13:30:25;7.40;;;4.55;;
52734;SDS011;38631;47.572;10.704;2022-07-23T13:32:51;7.40;;;4.80;;
52734;SDS011;38631;47.572;10.704;2022-07-23T13:35:16;6.90;;;5.00;;
52734;SDS011;38631;47.572;10.704;2022-07-23T13:37:42;5.27;;;4.77;;
52734;SDS011;38631;47.572;10.704;2022-07-23T13:40:07;6.28;;;4.38;;
52734;SDS011;38631;47.572;10.704;2022-07-23T13:42:33;6.20;;;4.72;;
52734;SDS011;38631;47.572;10.704;2022-07-23T13:44:58;5.93;;;4.55;;
52734;SDS011;38631;47.572;10.704;2022-07-23T13:47:23;5.30;;;4.80;;
52734;SDS011;38631;47.572;10.704;2022-07-23T13:49:48;7.50;;;4.43;;
52734;SDS011;38631;47.572;10.704;2022-07-23T13:52:15;5.88;;;5.03;;
52734;SDS011;38631;47.572;10.704;2022-07-23T13:54:40;5.00;;;4.50;;
52734;SDS011;38631;47.572;10.704;2022-07-23T13:57:06;5.63;;;5.07;;
52734;SDS011;38631;47.572;10.704;2022-07-23T13:59:32;5.72;;;4.65;;
52734;SDS011;38631;47.572;10.704;2022-07-23T14:01:57;5.75;;;4.60;;
52734;SDS011;38631;47.572;10.704;2022-07-23T14:04:22;5.43;;;4.63;;
52734;SDS011;38631;47.572;10.704;2022-07-23T14:06:48;4.77;;;4.10;;
52734;SDS011;38631;47.572;10.704;2022-07-23T14:09:13;6.50;;;4.05;;
52734;SDS011;38631;47.572;10.704;2022-07-23T14:11:38;6.10;;;4.38;;
52734;SDS011;38631;47.572;10.704;2022-07-23T14:14:04;5.45;;;4.85;;
52734;SDS011;38631;47.572;10.704;2022-07-23T14:16:29;6.22;;;5.18;;
52734;SDS011;38631;47.572;10.704;2022-07-23T14:18:54;7.70;;;5.03;;
52734;SDS011;38631;47.572;10.704;2022-07-23T14:21:19;6.82;;;5.10;;
52734;SDS011;38631;47.572;10.704;2022-07-23T14:23:45;5.13;;;4.47;;
52734;SDS011;38631;47.572;10.704;2022-07-23T14:26:13;8.77;;;5.05;;
52734;SDS011;38631;47.572;10.704;2022-07-23T14:28:38;5.03;;;4.53;;
52734;SDS011;38631;47.572;10.704;2022-07-23T14:31:03;7.27;;;5.50;;
52734;SDS011;38631;47.572;10.704;2022-07-23T14:33:28;7.80;;;6.33;;
52734;SDS011;38631;47.572;10.704;2022-07-23T14:36:00;9.80;;;6.30;;
52734;SDS011;38631;47.572;10.704;2022-07-23T14:38:25;7.57;;;6.10;;
52734;SDS011;38631;47.572;10.704;2022-07-23T14:40:51;5.93;;;5.35;;
52734;SDS011;38631;47.572;10.704;2022-07-23T14:43:16;6.13;;;5.53;;
52734;SDS011;38631;47.572;10.704;2022-07-23T14:45:42;8.17;;;5.97;;
52734;SDS011;38631;47.572;10.704;2022-07-23T14:48:07;7.57;;;6.05;;
52734;SDS011;38631;47.572;10.704;2022-07-23T14:50:33;7.72;;;5.90;;
52734;SDS011;38631;47.572;10.704;2022-07-23T14:52:58;6.33;;;5.73;;
52734;SDS011;38631;47.572;10.704;2022-07-23T14:55:23;7.40;;;6.63;;
52734;SDS011;38631;47.572;10.704;2022-07-23T14:57:48;7.10;;;5.37;;
52734;SDS011;38631;47.572;10.704;2022-07-23T15:00:13;7.40;;;6.18;;
52734;SDS011;38631;47.572;10.704;2022-07-23T15:02:40;7.45;;;6.60;;
52734;SDS011;38631;47.572;10.704;2022-07-23T15:05:05;8.60;;;6.70;;
52734;SDS011;38631;47.572;10.704;2022-07-23T15:07:30;7.40;;;6.70;;
52734;SDS011;38631;47.572;10.704;2022-07-23T15:09:56;6.17;;;5.63;;
52734;SDS011;38631;47.572;10.704;2022-07-23T15:12:21;6.75;;;5.85;;
52734;SDS011;38631;47.572;10.704;2022-07-23T15:14:46;6.97;;;6.25;;
52734;SDS011;38631;47.572;10.704;2022-07-23T15:17:12;8.23;;;6.87;;
52734;SDS011;38631;47.572;10.704;2022-07-23T15:19:37;8.03;;;6.00;;
52734;SDS011;38631;47.572;10.704;2022-07-23T15:22:03;9.83;;;6.67;;